sensor_id;sensor_type;location;lat;lon;timestamp;P1;durP1;ratioP1;P2;durP2;ratioP2
14373;SDS011;7270;49.004;12.066;2023-06-26T00:00:59;1.30;;;1.20;;
14373;SDS011;7270;49.004;12.066;2023-06-26T00:03:26;1.30;;;1.20;;
14373;SDS011;7270;49.004;12.066;2023-06-26T00:05:54;1.40;;;1.30;;
14373;SDS011;7270;49.004;12.066;2023-06-26T00:08:25;1.00;;;1.00;;
14373;SDS011;7270;49.004;12.066;2023-06-26T00:10:52;1.10;;;1.10;;
14373;SDS011;7270;49.004;12.066;2023-06-26T00:13:18;1.30;;;1.20;;
14373;SDS011;7270;49.004;12.066;2023-06-26T00:15:46;1.30;;;1.20;;
14373;SDS011;7270;49.004;12.066;2023-06-26T00:18:12;1.30;;;1.20;;
14373;SDS011;7270;49.004;12.066;2023-06-26T00:20:39;1.20;;;1.20;;
14373;SDS011;7270;49.004;12.066;2023-06-26T00:23:05;1.27;;;1.20;;
14373;SDS011;7270;49.004;12.066;2023-06-26T00:25:32;1.30;;;1.20;;
14373;SDS011;7270;49.004;12.066;2023-06-26T00:27:58;1.13;;;1.13;;
14373;SDS011;7270;49.004;12.066;2023-06-26T00:30:25;1.30;;;1.20;;
14373;SDS011;7270;49.004;12.066;2023-06-26T00:32:52;1.20;;;1.20;;
14373;SDS011;7270;49.004;12.066;2023-06-26T00:35:19;1.03;;;1.03;;
14373;SDS011;7270;49.004;12.066;2023-06-26T00:37:45;1.20;;;1.20;;
14373;SDS011;7270;49.004;12.066;2023-06-26T00:40:12;1.00;;;1.00;;
14373;SDS011;7270;49.004;12.066;2023-06-26T00:42:38;1.10;;;1.10;;
14373;SDS011;7270;49.004;12.066;2023-06-26T00:45:05;1.13;;;1.13;;
14373;SDS011;7270;49.004;12.066;2023-06-26T00:47:31;1.10;;;1.10;;
14373;SDS011;7270;49.004;12.066;2023-06-26T00:49:59;1.10;;;1.10;;
14373;SDS011;7270;49.004;12.066;2023-06-26T00:52:26;1.20;;;1.20;;
14373;SDS011;7270;49.004;12.066;2023-06-26T00:54:52;1.20;;;1.20;;
14373;SDS011;7270;49.004;12.066;2023-06-26T00:57:19;1.10;;;1.10;;
14373;SDS011;7270;49.004;12.066;2023-06-26T00:59:45;1.20;;;1.20;;
14373;SDS011;7270;49.004;12.066;2023-06-26T01:02:11;1.13;;;1.13;;
14373;SDS011;7270;49.004;12.066;2023-06-26T01:04:45;1.10;;;1.10;;
14373;SDS011;7270;49.004;12.066;2023-06-26T01:07:13;1.10;;;1.10;;
14373;SDS011;7270;49.004;12.066;2023-06-26T01:09:41;1.10;;;1.10;;
14373;SDS011;7270;49.004;12.066;2023-06-26T01:12:08;1.30;;;1.20;;
14373;SDS011;7270;49.004;12.066;2023-06-26T01:14:34;1.20;;;1.20;;
14373;SDS011;7270;49.004;12.066;2023-06-26T01:17:02;1.20;;;1.20;;
14373;SDS011;7270;49.004;12.066;2023-06-26T01:19:28;1.27;;;1.20;;
14373;SDS011;7270;49.004;12.066;2023-06-26T01:21:56;1.30;;;1.20;;
14373;SDS011;7270;49.004;12.066;2023-06-26T01:24:25;1.20;;;1.20;;
14373;SDS011;7270;49.004;12.066;2023-06-26T01:26:59;1.20;;;1.20;;
14373;SDS011;7270;49.004;12.066;2023-06-26T01:29:27;1.20;;;1.20;;
14373;SDS011;7270;49.004;12.066;2023-06-26T01:31:54;1.13;;;1.13;;
14373;SDS011;7270;49.004;12.066;2023-06-26T01:34:21;1.10;;;1.10;;
14373;SDS011;7270;49.004;12.066;2023-06-26T01:36:47;1.10;;;1.10;;
14373;SDS011;7270;49.004;12.066;2023-06-26T01:39:15;1.10;;;1.10;;
14373;SDS011;7270;49.004;12.066;2023-06-26T01:41:41;1.10;;;1.10;;
14373;SDS011;7270;49.004;12.066;2023-06-26T01:44:14;1.10;;;1.10;;
14373;SDS011;7270;49.004;12.066;2023-06-26T01:46:51;1.20;;;1.20;;
14373;SDS011;7270;49.004;12.066;2023-06-26T01:49:21;1.10;;;1.10;;
14373;SDS011;7270;49.004;12.066;2023-06-26T01:51:52;1.10;;;1.10;;
14373;SDS011;7270;49.004;12.066;2023-06-26T01:54:23;1.10;;;1.10;;
14373;SDS011;7270;49.004;12.066;2023-06-26T01:56:52;1.10;;;1.10;;
14373;SDS011;7270;49.004;12.066;2023-06-26T01:59:21;1.10;;;1.10;;
14373;SDS011;7270;49.004;12.066;2023-06-26T02:01:48;1.10;;;1.10;;
14373;SDS011;7270;49.004;12.066;2023-06-26T02:04:14;1.13;;;1.13;;
14373;SDS011;7270;49.004;12.066;2023-06-26T02:06:40;1.00;;;1.00;;
14373;SDS011;7270;49.004;12.066;2023-06-26T02:09:07;1.30;;;1.20;;
14373;SDS011;7270;49.004;12.066;2023-06-26T02:11:33;1.27;;;1.27;;
14373;SDS011;7270;49.004;12.066;2023-06-26T02:14:00;1.13;;;1.13;;
14373;SDS011;7270;49.004;12.066;2023-06-26T02:16:28;1.10;;;1.10;;
14373;SDS011;7270;49.004;12.066;2023-06-26T02:18:54;1.10;;;1.10;;
14373;SDS011;7270;49.004;12.066;2023-06-26T02:21:22;1.10;;;1.10;;
14373;SDS011;7270;49.004;12.066;2023-06-26T02:23:49;1.27;;;1.20;;
14373;SDS011;7270;49.004;12.066;2023-06-26T02:26:15;1.20;;;1.20;;
14373;SDS011;7270;49.004;12.066;2023-06-26T02:28:41;1.10;;;1.10;;
14373;SDS011;7270;49.004;12.066;2023-06-26T02:31:08;1.20;;;1.20;;
14373;SDS011;7270;49.004;12.066;2023-06-26T02:33:36;1.23;;;1.20;;
14373;SDS011;7270;49.004;12.066;2023-06-26T02:36:02;1.23;;;1.20;;
14373;SDS011;7270;49.004;12.066;2023-06-26T02:38:28;1.23;;;1.20;;
14373;SDS011;7270;49.004;12.066;2023-06-26T02:40:55;1.20;;;1.20;;
14373;SDS011;7270;49.004;12.066;2023-06-26T02:43:21;1.20;;;1.20;;
14373;SDS011;7270;49.004;12.066;2023-06-26T02:45:47;1.10;;;1.10;;
14373;SDS011;7270;49.004;12.066;2023-06-26T02:48:14;1.07;;;1.07;;
14373;SDS011;7270;49.004;12.066;2023-06-26T02:50:42;1.10;;;1.10;;
14373;SDS011;7270;49.004;12.066;2023-06-26T02:53:10;1.20;;;1.20;;
14373;SDS011;7270;49.004;12.066;2023-06-26T02:55:37;1.30;;;1.20;;
14373;SDS011;7270;49.004;12.066;2023-06-26T02:58:03;1.30;;;1.20;;
14373;SDS011;7270;49.004;12.066;2023-06-26T03:00:30;1.10;;;1.10;;
14373;SDS011;7270;49.004;12.066;2023-06-26T03:02:56;1.20;;;1.20;;
14373;SDS011;7270;49.004;12.066;2023-06-26T03:05:23;1.27;;;1.20;;
14373;SDS011;7270;49.004;12.066;2023-06-26T03:07:51;1.10;;;1.10;;
14373;SDS011;7270;49.004;12.066;2023-06-26T03:10:17;1.20;;;1.20;;
14373;SDS011;7270;49.004;12.066;2023-06-26T03:12:43;1.10;;;1.10;;
14373;SDS011;7270;49.004;12.066;2023-06-26T03:15:10;1.10;;;1.10;;
14373;SDS011;7270;49.004;12.066;2023-06-26T03:17:36;1.20;;;1.20;;
14373;SDS011;7270;49.004;12.066;2023-06-26T03:20:03;1.20;;;1.20;;
14373;SDS011;7270;49.004;12.066;2023-06-26T03:22:32;1.10;;;1.10;;
14373;SDS011;7270;49.004;12.066;2023-06-26T03:25:01;1.10;;;1.10;;
14373;SDS011;7270;49.004;12.066;2023-06-26T03:27:27;1.20;;;1.20;;
14373;SDS011;7270;49.004;12.066;2023-06-26T03:29:54;1.20;;;1.20;;
14373;SDS011;7270;49.004;12.066;2023-06-26T03:32:20;1.20;;;1.20;;
14373;SDS011;7270;49.004;12.066;2023-06-26T03:34:46;1.10;;;1.10;;
14373;SDS011;7270;49.004;12.066;2023-06-26T03:37:13;1.30;;;1.20;;
14373;SDS011;7270;49.004;12.066;2023-06-26T03:39:39;1.10;;;1.10;;
14373;SDS011;7270;49.004;12.066;2023-06-26T03:42:07;1.30;;;1.20;;
14373;SDS011;7270;49.004;12.066;2023-06-26T03:44:33;1.10;;;1.10;;
14373;SDS011;7270;49.004;12.066;2023-06-26T03:47:00;1.10;;;1.10;;
14373;SDS011;7270;49.004;12.066;2023-06-26T03:49:26;1.30;;;1.20;;
14373;SDS011;7270;49.004;12.066;2023-06-26T03:51:52;1.10;;;1.10;;
14373;SDS011;7270;49.004;12.066;2023-06-26T03:54:19;1.13;;;1.13;;
14373;SDS011;7270;49.004;12.066;2023-06-26T03:56:45;1.10;;;1.10;;
14373;SDS011;7270;49.004;12.066;2023-06-26T03:59:14;1.10;;;1.10;;
14373;SDS011;7270;49.004;12.066;2023-06-26T04:01:40;1.27;;;1.20;;
14373;SDS011;7270;49.004;12.066;2023-06-26T04:04:07;1.20;;;1.20;;
14373;SDS011;7270;49.004;12.066;2023-06-26T04:06:33;1.10;;;1.10;;
14373;SDS011;7270;49.004;12.066;2023-06-26T04:09:00;1.20;;;1.20;;
14373;SDS011;7270;49.004;12.066;2023-06-26T04:11:27;1.30;;;1.20;;
14373;SDS011;7270;49.004;12.066;2023-06-26T04:13:53;1.10;;;1.10;;
14373;SDS011;7270;49.004;12.066;2023-06-26T04:16:21;1.10;;;1.10;;
14373;SDS011;7270;49.004;12.066;2023-06-26T04:18:50;1.10;;;1.10;;
14373;SDS011;7270;49.004;12.066;2023-06-26T04:21:16;1.10;;;1.10;;
14373;SDS011;7270;49.004;12.066;2023-06-26T04:23:43;1.23;;;1.20;;
14373;SDS011;7270;49.004;12.066;2023-06-26T04:26:09;1.33;;;1.23;;
14373;SDS011;7270;49.004;12.066;2023-06-26T04:28:39;1.20;;;1.20;;
14373;SDS011;7270;49.004;12.066;2023-06-26T04:31:06;1.10;;;1.10;;
14373;SDS011;7270;49.004;12.066;2023-06-26T04:33:35;1.27;;;1.20;;
14373;SDS011;7270;49.004;12.066;2023-06-26T04:36:02;1.40;;;1.30;;
14373;SDS011;7270;49.004;12.066;2023-06-26T04:38:29;1.30;;;1.20;;
14373;SDS011;7270;49.004;12.066;2023-06-26T04:40:55;1.40;;;1.30;;
14373;SDS011;7270;49.004;12.066;2023-06-26T04:43:21;1.00;;;1.00;;
14373;SDS011;7270;49.004;12.066;2023-06-26T04:45:48;0.90;;;0.90;;
14373;SDS011;7270;49.004;12.066;2023-06-26T04:48:14;0.90;;;0.90;;
14373;SDS011;7270;49.004;12.066;2023-06-26T04:50:42;0.90;;;0.90;;
14373;SDS011;7270;49.004;12.066;2023-06-26T04:53:09;0.90;;;0.90;;
14373;SDS011;7270;49.004;12.066;2023-06-26T04:55:35;0.90;;;0.90;;
14373;SDS011;7270;49.004;12.066;2023-06-26T04:58:02;0.90;;;0.90;;
14373;SDS011;7270;49.004;12.066;2023-06-26T05:00:28;1.00;;;1.00;;
14373;SDS011;7270;49.004;12.066;2023-06-26T05:02:54;0.90;;;0.90;;
14373;SDS011;7270;49.004;12.066;2023-06-26T05:05:25;1.00;;;1.00;;
14373;SDS011;7270;49.004;12.066;2023-06-26T05:07:54;1.10;;;1.10;;
14373;SDS011;7270;49.004;12.066;2023-06-26T05:10:20;0.90;;;0.90;;
14373;SDS011;7270;49.004;12.066;2023-06-26T05:12:46;1.00;;;1.00;;
14373;SDS011;7270;49.004;12.066;2023-06-26T05:15:12;0.90;;;0.90;;
14373;SDS011;7270;49.004;12.066;2023-06-26T05:17:39;0.90;;;0.90;;
14373;SDS011;7270;49.004;12.066;2023-06-26T05:20:05;0.90;;;0.90;;
14373;SDS011;7270;49.004;12.066;2023-06-26T05:22:32;0.90;;;0.90;;
14373;SDS011;7270;49.004;12.066;2023-06-26T05:25:01;0.90;;;0.90;;
14373;SDS011;7270;49.004;12.066;2023-06-26T05:27:28;1.00;;;1.00;;
14373;SDS011;7270;49.004;12.066;2023-06-26T05:29:55;1.00;;;1.00;;
14373;SDS011;7270;49.004;12.066;2023-06-26T05:32:21;0.90;;;0.90;;
14373;SDS011;7270;49.004;12.066;2023-06-26T05:34:50;1.00;;;1.00;;
14373;SDS011;7270;49.004;12.066;2023-06-26T05:37:18;1.00;;;1.00;;
14373;SDS011;7270;49.004;12.066;2023-06-26T05:39:46;0.90;;;0.90;;
14373;SDS011;7270;49.004;12.066;2023-06-26T05:42:14;0.80;;;0.80;;
14373;SDS011;7270;49.004;12.066;2023-06-26T05:44:42;0.90;;;0.90;;
14373;SDS011;7270;49.004;12.066;2023-06-26T05:47:08;0.80;;;0.80;;
14373;SDS011;7270;49.004;12.066;2023-06-26T05:49:34;0.90;;;0.90;;
14373;SDS011;7270;49.004;12.066;2023-06-26T05:52:01;0.90;;;0.90;;
14373;SDS011;7270;49.004;12.066;2023-06-26T05:54:27;1.00;;;1.00;;
14373;SDS011;7270;49.004;12.066;2023-06-26T05:56:55;1.00;;;1.00;;
14373;SDS011;7270;49.004;12.066;2023-06-26T05:59:23;1.00;;;1.00;;
14373;SDS011;7270;49.004;12.066;2023-06-26T06:01:51;1.00;;;1.00;;
14373;SDS011;7270;49.004;12.066;2023-06-26T06:04:17;0.90;;;0.90;;
14373;SDS011;7270;49.004;12.066;2023-06-26T06:06:44;1.00;;;1.00;;
14373;SDS011;7270;49.004;12.066;2023-06-26T06:09:10;1.00;;;1.00;;
14373;SDS011;7270;49.004;12.066;2023-06-26T06:11:37;0.80;;;0.80;;
14373;SDS011;7270;49.004;12.066;2023-06-26T06:14:03;0.90;;;0.90;;
14373;SDS011;7270;49.004;12.066;2023-06-26T06:16:31;0.90;;;0.90;;
14373;SDS011;7270;49.004;12.066;2023-06-26T06:18:57;0.90;;;0.90;;
14373;SDS011;7270;49.004;12.066;2023-06-26T06:21:24;1.00;;;1.00;;
14373;SDS011;7270;49.004;12.066;2023-06-26T06:23:50;0.90;;;0.90;;
14373;SDS011;7270;49.004;12.066;2023-06-26T06:26:16;1.00;;;1.00;;
14373;SDS011;7270;49.004;12.066;2023-06-26T06:28:43;1.00;;;1.00;;
14373;SDS011;7270;49.004;12.066;2023-06-26T06:31:09;0.90;;;0.90;;
14373;SDS011;7270;49.004;12.066;2023-06-26T06:33:37;1.00;;;1.00;;
14373;SDS011;7270;49.004;12.066;2023-06-26T06:36:03;0.90;;;0.90;;
14373;SDS011;7270;49.004;12.066;2023-06-26T06:38:29;1.00;;;1.00;;
14373;SDS011;7270;49.004;12.066;2023-06-26T06:40:56;1.00;;;1.00;;
14373;SDS011;7270;49.004;12.066;2023-06-26T06:43:23;1.00;;;1.00;;
14373;SDS011;7270;49.004;12.066;2023-06-26T06:45:49;0.90;;;0.90;;
14373;SDS011;7270;49.004;12.066;2023-06-26T06:48:16;1.00;;;1.00;;
14373;SDS011;7270;49.004;12.066;2023-06-26T06:50:43;1.00;;;1.00;;
14373;SDS011;7270;49.004;12.066;2023-06-26T06:53:10;1.00;;;1.00;;
14373;SDS011;7270;49.004;12.066;2023-06-26T06:55:36;1.00;;;1.00;;
14373;SDS011;7270;49.004;12.066;2023-06-26T06:58:02;1.00;;;1.00;;
14373;SDS011;7270;49.004;12.066;2023-06-26T07:00:29;0.90;;;0.90;;
14373;SDS011;7270;49.004;12.066;2023-06-26T07:02:56;1.00;;;1.00;;
14373;SDS011;7270;49.004;12.066;2023-06-26T07:05:25;1.00;;;1.00;;
14373;SDS011;7270;49.004;12.066;2023-06-26T07:07:52;0.90;;;0.90;;
14373;SDS011;7270;49.004;12.066;2023-06-26T07:10:19;0.90;;;0.90;;
14373;SDS011;7270;49.004;12.066;2023-06-26T07:12:45;1.00;;;1.00;;
14373;SDS011;7270;49.004;12.066;2023-06-26T07:15:12;1.00;;;1.00;;
14373;SDS011;7270;49.004;12.066;2023-06-26T07:17:38;0.97;;;0.97;;
14373;SDS011;7270;49.004;12.066;2023-06-26T07:20:05;1.07;;;1.07;;
14373;SDS011;7270;49.004;12.066;2023-06-26T07:22:33;1.10;;;1.10;;
14373;SDS011;7270;49.004;12.066;2023-06-26T07:25:00;1.00;;;1.00;;
14373;SDS011;7270;49.004;12.066;2023-06-26T07:27:27;1.10;;;1.10;;
14373;SDS011;7270;49.004;12.066;2023-06-26T07:29:53;1.10;;;1.10;;
14373;SDS011;7270;49.004;12.066;2023-06-26T07:32:20;1.40;;;1.30;;
14373;SDS011;7270;49.004;12.066;2023-06-26T07:34:46;1.37;;;1.27;;
14373;SDS011;7270;49.004;12.066;2023-06-26T07:37:12;1.50;;;1.40;;
14373;SDS011;7270;49.004;12.066;2023-06-26T07:39:39;1.57;;;1.47;;
14373;SDS011;7270;49.004;12.066;2023-06-26T07:42:06;1.50;;;1.40;;
14373;SDS011;7270;49.004;12.066;2023-06-26T07:44:33;1.60;;;1.50;;
14373;SDS011;7270;49.004;12.066;2023-06-26T07:46:59;1.70;;;1.60;;
14373;SDS011;7270;49.004;12.066;2023-06-26T07:49:25;1.80;;;1.70;;
14373;SDS011;7270;49.004;12.066;2023-06-26T07:51:52;1.90;;;1.80;;
14373;SDS011;7270;49.004;12.066;2023-06-26T07:54:18;1.90;;;1.80;;
14373;SDS011;7270;49.004;12.066;2023-06-26T07:56:54;1.80;;;1.70;;
14373;SDS011;7270;49.004;12.066;2023-06-26T07:59:22;1.98;;;1.88;;
14373;SDS011;7270;49.004;12.066;2023-06-26T08:01:49;2.08;;;1.98;;
14373;SDS011;7270;49.004;12.066;2023-06-26T08:04:17;2.10;;;2.00;;
14373;SDS011;7270;49.004;12.066;2023-06-26T08:06:43;2.10;;;2.00;;
14373;SDS011;7270;49.004;12.066;2023-06-26T08:09:09;2.00;;;1.90;;
14373;SDS011;7270;49.004;12.066;2023-06-26T08:11:37;2.10;;;2.00;;
14373;SDS011;7270;49.004;12.066;2023-06-26T08:14:04;2.20;;;2.10;;
14373;SDS011;7270;49.004;12.066;2023-06-26T08:16:31;2.00;;;1.90;;
14373;SDS011;7270;49.004;12.066;2023-06-26T08:18:58;2.20;;;2.10;;
14373;SDS011;7270;49.004;12.066;2023-06-26T08:21:24;2.20;;;2.10;;
14373;SDS011;7270;49.004;12.066;2023-06-26T08:23:50;2.20;;;2.10;;
14373;SDS011;7270;49.004;12.066;2023-06-26T08:26:17;2.20;;;2.10;;
14373;SDS011;7270;49.004;12.066;2023-06-26T08:28:43;2.30;;;2.20;;
14373;SDS011;7270;49.004;12.066;2023-06-26T08:31:10;2.30;;;2.20;;
14373;SDS011;7270;49.004;12.066;2023-06-26T08:33:37;2.30;;;2.20;;
14373;SDS011;7270;49.004;12.066;2023-06-26T08:36:04;2.38;;;2.28;;
14373;SDS011;7270;49.004;12.066;2023-06-26T08:38:31;2.30;;;2.20;;
14373;SDS011;7270;49.004;12.066;2023-06-26T08:40:58;2.40;;;2.30;;
14373;SDS011;7270;49.004;12.066;2023-06-26T08:43:24;2.50;;;2.40;;
14373;SDS011;7270;49.004;12.066;2023-06-26T08:45:52;2.50;;;2.40;;
14373;SDS011;7270;49.004;12.066;2023-06-26T08:48:18;2.60;;;2.50;;
14373;SDS011;7270;49.004;12.066;2023-06-26T08:50:48;2.70;;;2.60;;
14373;SDS011;7270;49.004;12.066;2023-06-26T08:53:17;2.53;;;2.42;;
14373;SDS011;7270;49.004;12.066;2023-06-26T08:55:46;2.60;;;2.50;;
14373;SDS011;7270;49.004;12.066;2023-06-26T08:58:15;2.70;;;2.60;;
14373;SDS011;7270;49.004;12.066;2023-06-26T09:00:41;2.70;;;2.60;;
14373;SDS011;7270;49.004;12.066;2023-06-26T09:03:07;2.70;;;2.60;;
14373;SDS011;7270;49.004;12.066;2023-06-26T09:05:34;2.83;;;2.72;;
14373;SDS011;7270;49.004;12.066;2023-06-26T09:08:02;2.80;;;2.70;;
14373;SDS011;7270;49.004;12.066;2023-06-26T09:10:29;2.72;;;2.63;;
14373;SDS011;7270;49.004;12.066;2023-06-26T09:12:55;2.80;;;2.70;;
14373;SDS011;7270;49.004;12.066;2023-06-26T09:15:23;2.90;;;2.80;;
14373;SDS011;7270;49.004;12.066;2023-06-26T09:17:49;2.80;;;2.70;;
14373;SDS011;7270;49.004;12.066;2023-06-26T09:20:16;2.80;;;2.70;;
14373;SDS011;7270;49.004;12.066;2023-06-26T09:22:42;2.70;;;2.60;;
14373;SDS011;7270;49.004;12.066;2023-06-26T09:25:10;2.80;;;2.70;;
14373;SDS011;7270;49.004;12.066;2023-06-26T09:27:37;2.70;;;2.60;;
14373;SDS011;7270;49.004;12.066;2023-06-26T09:30:03;2.75;;;2.65;;
14373;SDS011;7270;49.004;12.066;2023-06-26T09:32:33;2.75;;;2.65;;
14373;SDS011;7270;49.004;12.066;2023-06-26T09:34:59;2.90;;;2.80;;
14373;SDS011;7270;49.004;12.066;2023-06-26T09:37:28;2.80;;;2.70;;
14373;SDS011;7270;49.004;12.066;2023-06-26T09:39:54;2.80;;;2.70;;
14373;SDS011;7270;49.004;12.066;2023-06-26T09:42:22;3.00;;;2.90;;
14373;SDS011;7270;49.004;12.066;2023-06-26T09:44:49;2.90;;;2.80;;
14373;SDS011;7270;49.004;12.066;2023-06-26T09:47:16;2.80;;;2.70;;
14373;SDS011;7270;49.004;12.066;2023-06-26T09:49:43;2.80;;;2.70;;
14373;SDS011;7270;49.004;12.066;2023-06-26T09:52:09;2.80;;;2.70;;
14373;SDS011;7270;49.004;12.066;2023-06-26T09:54:37;2.90;;;2.80;;
14373;SDS011;7270;49.004;12.066;2023-06-26T09:57:07;3.03;;;2.92;;
14373;SDS011;7270;49.004;12.066;2023-06-26T09:59:34;3.22;;;3.13;;
14373;SDS011;7270;49.004;12.066;2023-06-26T10:02:01;3.00;;;2.90;;
14373;SDS011;7270;49.004;12.066;2023-06-26T10:04:27;3.00;;;2.90;;
14373;SDS011;7270;49.004;12.066;2023-06-26T10:06:54;3.00;;;2.90;;
14373;SDS011;7270;49.004;12.066;2023-06-26T10:09:21;2.90;;;2.80;;
14373;SDS011;7270;49.004;12.066;2023-06-26T10:11:49;3.00;;;2.90;;
14373;SDS011;7270;49.004;12.066;2023-06-26T10:14:17;3.10;;;3.00;;
14373;SDS011;7270;49.004;12.066;2023-06-26T10:16:46;3.10;;;3.00;;
14373;SDS011;7270;49.004;12.066;2023-06-26T10:19:14;3.28;;;3.17;;
14373;SDS011;7270;49.004;12.066;2023-06-26T10:21:41;3.10;;;3.00;;
14373;SDS011;7270;49.004;12.066;2023-06-26T10:24:08;3.10;;;3.00;;
14373;SDS011;7270;49.004;12.066;2023-06-26T10:26:37;3.00;;;2.90;;
14373;SDS011;7270;49.004;12.066;2023-06-26T10:29:04;3.10;;;3.00;;
14373;SDS011;7270;49.004;12.066;2023-06-26T10:31:31;3.20;;;3.10;;
14373;SDS011;7270;49.004;12.066;2023-06-26T10:34:00;3.25;;;3.15;;
14373;SDS011;7270;49.004;12.066;2023-06-26T10:36:27;3.20;;;3.10;;
14373;SDS011;7270;49.004;12.066;2023-06-26T10:38:54;3.20;;;3.10;;
14373;SDS011;7270;49.004;12.066;2023-06-26T10:41:21;3.50;;;3.30;;
14373;SDS011;7270;49.004;12.066;2023-06-26T10:43:49;3.58;;;3.38;;
14373;SDS011;7270;49.004;12.066;2023-06-26T10:46:15;3.47;;;3.30;;
14373;SDS011;7270;49.004;12.066;2023-06-26T10:48:55;3.10;;;3.00;;
14373;SDS011;7270;49.004;12.066;2023-06-26T10:51:23;3.25;;;3.15;;
14373;SDS011;7270;49.004;12.066;2023-06-26T10:53:50;3.00;;;2.90;;
14373;SDS011;7270;49.004;12.066;2023-06-26T10:56:20;3.00;;;2.90;;
14373;SDS011;7270;49.004;12.066;2023-06-26T10:58:47;3.20;;;3.10;;
14373;SDS011;7270;49.004;12.066;2023-06-26T11:01:13;3.10;;;3.00;;
14373;SDS011;7270;49.004;12.066;2023-06-26T11:03:40;3.10;;;3.00;;
14373;SDS011;7270;49.004;12.066;2023-06-26T11:06:08;3.30;;;3.20;;
14373;SDS011;7270;49.004;12.066;2023-06-26T11:08:45;3.13;;;3.03;;
14373;SDS011;7270;49.004;12.066;2023-06-26T11:11:11;3.20;;;3.10;;
14373;SDS011;7270;49.004;12.066;2023-06-26T11:13:39;3.00;;;2.90;;
14373;SDS011;7270;49.004;12.066;2023-06-26T11:16:05;3.10;;;3.00;;
14373;SDS011;7270;49.004;12.066;2023-06-26T11:18:32;3.00;;;2.90;;
14373;SDS011;7270;49.004;12.066;2023-06-26T11:21:04;3.10;;;3.00;;
14373;SDS011;7270;49.004;12.066;2023-06-26T11:23:32;3.00;;;2.90;;
14373;SDS011;7270;49.004;12.066;2023-06-26T11:26:13;3.05;;;2.95;;
14373;SDS011;7270;49.004;12.066;2023-06-26T11:28:45;3.20;;;3.10;;
14373;SDS011;7270;49.004;12.066;2023-06-26T11:31:23;3.10;;;3.00;;
14373;SDS011;7270;49.004;12.066;2023-06-26T11:33:49;3.10;;;3.00;;
14373;SDS011;7270;49.004;12.066;2023-06-26T11:36:15;3.10;;;3.00;;
14373;SDS011;7270;49.004;12.066;2023-06-26T11:38:42;3.13;;;3.03;;
14373;SDS011;7270;49.004;12.066;2023-06-26T11:41:08;3.30;;;3.20;;
14373;SDS011;7270;49.004;12.066;2023-06-26T11:43:36;3.17;;;3.08;;
14373;SDS011;7270;49.004;12.066;2023-06-26T11:46:02;3.00;;;2.90;;
14373;SDS011;7270;49.004;12.066;2023-06-26T11:48:30;2.90;;;2.80;;
14373;SDS011;7270;49.004;12.066;2023-06-26T11:50:56;3.00;;;2.90;;
14373;SDS011;7270;49.004;12.066;2023-06-26T11:53:22;2.90;;;2.80;;
14373;SDS011;7270;49.004;12.066;2023-06-26T11:55:51;2.97;;;2.88;;
14373;SDS011;7270;49.004;12.066;2023-06-26T11:58:17;2.83;;;2.72;;
14373;SDS011;7270;49.004;12.066;2023-06-26T12:00:47;3.20;;;3.10;;
14373;SDS011;7270;49.004;12.066;2023-06-26T12:03:13;2.92;;;2.83;;
14373;SDS011;7270;49.004;12.066;2023-06-26T12:05:40;2.70;;;2.60;;
14373;SDS011;7270;49.004;12.066;2023-06-26T12:08:10;2.80;;;2.70;;
14373;SDS011;7270;49.004;12.066;2023-06-26T12:10:36;2.70;;;2.60;;
14373;SDS011;7270;49.004;12.066;2023-06-26T12:13:03;2.60;;;2.50;;
14373;SDS011;7270;49.004;12.066;2023-06-26T12:15:29;2.63;;;2.53;;
14373;SDS011;7270;49.004;12.066;2023-06-26T12:17:57;2.60;;;2.50;;
14373;SDS011;7270;49.004;12.066;2023-06-26T12:20:23;3.08;;;2.97;;
14373;SDS011;7270;49.004;12.066;2023-06-26T12:22:50;641.17;;;591.78;;
14373;SDS011;7270;49.004;12.066;2023-06-26T12:25:21;2.40;;;2.30;;
14373;SDS011;7270;49.004;12.066;2023-06-26T12:27:47;2.60;;;2.50;;
14373;SDS011;7270;49.004;12.066;2023-06-26T12:30:15;154.13;;;143.45;;
14373;SDS011;7270;49.004;12.066;2023-06-26T12:32:43;629.95;;;577.25;;
14373;SDS011;7270;49.004;12.066;2023-06-26T12:35:11;684.22;;;619.42;;
14373;SDS011;7270;49.004;12.066;2023-06-26T12:37:41;688.53;;;623.57;;
14373;SDS011;7270;49.004;12.066;2023-06-26T12:40:15;693.33;;;628.10;;
14373;SDS011;7270;49.004;12.066;2023-06-26T12:42:42;686.30;;;621.43;;
14373;SDS011;7270;49.004;12.066;2023-06-26T12:45:12;709.67;;;643.83;;
14373;SDS011;7270;49.004;12.066;2023-06-26T12:47:39;670.25;;;606.65;;
14373;SDS011;7270;49.004;12.066;2023-06-26T12:50:07;681.35;;;619.05;;
14373;SDS011;7270;49.004;12.066;2023-06-26T12:52:35;673.13;;;609.05;;
14373;SDS011;7270;49.004;12.066;2023-06-26T12:55:01;663.05;;;599.25;;
14373;SDS011;7270;49.004;12.066;2023-06-26T12:57:27;319.65;;;302.20;;
14373;SDS011;7270;49.004;12.066;2023-06-26T12:59:54;491.58;;;460.92;;
14373;SDS011;7270;49.004;12.066;2023-06-26T13:02:20;475.73;;;445.55;;
14373;SDS011;7270;49.004;12.066;2023-06-26T13:04:46;493.40;;;462.08;;
14373;SDS011;7270;49.004;12.066;2023-06-26T13:07:13;403.13;;;379.88;;
14373;SDS011;7270;49.004;12.066;2023-06-26T13:09:40;249.30;;;238.02;;
14373;SDS011;7270;49.004;12.066;2023-06-26T13:12:07;2.10;;;2.00;;
14373;SDS011;7270;49.004;12.066;2023-06-26T13:14:34;2.20;;;2.10;;
14373;SDS011;7270;49.004;12.066;2023-06-26T13:17:00;2.10;;;2.00;;
14373;SDS011;7270;49.004;12.066;2023-06-26T13:19:27;2.10;;;2.00;;
14373;SDS011;7270;49.004;12.066;2023-06-26T13:21:53;2.10;;;2.00;;
14373;SDS011;7270;49.004;12.066;2023-06-26T13:24:20;2.10;;;2.00;;
14373;SDS011;7270;49.004;12.066;2023-06-26T13:26:47;2.00;;;1.90;;
14373;SDS011;7270;49.004;12.066;2023-06-26T13:29:14;2.00;;;1.90;;
14373;SDS011;7270;49.004;12.066;2023-06-26T13:31:41;2.00;;;1.90;;
14373;SDS011;7270;49.004;12.066;2023-06-26T13:34:07;2.10;;;2.00;;
14373;SDS011;7270;49.004;12.066;2023-06-26T13:36:33;2.00;;;1.90;;
14373;SDS011;7270;49.004;12.066;2023-06-26T13:39:00;1.90;;;1.80;;
14373;SDS011;7270;49.004;12.066;2023-06-26T13:41:26;1.90;;;1.80;;
14373;SDS011;7270;49.004;12.066;2023-06-26T13:43:55;2.00;;;1.90;;
14373;SDS011;7270;49.004;12.066;2023-06-26T13:46:21;1.90;;;1.80;;
14373;SDS011;7270;49.004;12.066;2023-06-26T13:48:47;1.93;;;1.83;;
14373;SDS011;7270;49.004;12.066;2023-06-26T13:51:14;1.90;;;1.80;;
14373;SDS011;7270;49.004;12.066;2023-06-26T13:53:40;1.93;;;1.83;;
14373;SDS011;7270;49.004;12.066;2023-06-26T13:56:07;2.00;;;1.90;;
14373;SDS011;7270;49.004;12.066;2023-06-26T13:58:34;1.90;;;1.80;;
14373;SDS011;7270;49.004;12.066;2023-06-26T14:01:02;1.90;;;1.80;;
14373;SDS011;7270;49.004;12.066;2023-06-26T14:03:29;1.90;;;1.80;;
14373;SDS011;7270;49.004;12.066;2023-06-26T14:05:55;1.80;;;1.70;;
14373;SDS011;7270;49.004;12.066;2023-06-26T14:08:21;1.90;;;1.80;;
14373;SDS011;7270;49.004;12.066;2023-06-26T14:10:48;1.83;;;1.73;;
14373;SDS011;7270;49.004;12.066;2023-06-26T14:13:14;1.90;;;1.80;;
14373;SDS011;7270;49.004;12.066;2023-06-26T14:15:41;1.90;;;1.80;;
14373;SDS011;7270;49.004;12.066;2023-06-26T14:18:08;2.10;;;2.00;;
14373;SDS011;7270;49.004;12.066;2023-06-26T14:20:35;1.90;;;1.80;;
14373;SDS011;7270;49.004;12.066;2023-06-26T14:23:02;1.90;;;1.80;;
14373;SDS011;7270;49.004;12.066;2023-06-26T14:25:28;1.90;;;1.80;;
14373;SDS011;7270;49.004;12.066;2023-06-26T14:27:54;1.80;;;1.70;;
14373;SDS011;7270;49.004;12.066;2023-06-26T14:30:21;1.90;;;1.80;;
14373;SDS011;7270;49.004;12.066;2023-06-26T14:32:47;1.80;;;1.70;;
14373;SDS011;7270;49.004;12.066;2023-06-26T14:35:15;2.00;;;1.90;;
14373;SDS011;7270;49.004;12.066;2023-06-26T14:37:41;1.90;;;1.80;;
14373;SDS011;7270;49.004;12.066;2023-06-26T14:40:09;1.80;;;1.70;;
14373;SDS011;7270;49.004;12.066;2023-06-26T14:42:35;1.80;;;1.70;;
14373;SDS011;7270;49.004;12.066;2023-06-26T14:45:02;1.80;;;1.70;;